Hawthorn, Alabama
Current Conditions -  °F | °C
As of 9:56 AM on Tuesday 21 Oct 2014 (Local Time) from KMOB Reporting Station
Clear Clear  
Wind Chill: 69°   Ceiling: Unl
Heat Index: 69°   Visibility: 10mi
Dew Point: 53°   Wind: 8mph
Humidity: 57%   Direction: 20°NNE
Pressure: 30.07"   Gusts: NA
Location:  31.3942°N, 88.065°W
Report Text: KMOB 211456Z 02007KT 10SM CLR 21/12 A3007 RMK AO2 SLP182 T02060117 51012
Loading
Personal Weather Stations






























Interactive Weather Map
Tropical Storm Tracking
New forecast layout! Learn more

10-Day Weather Forecast

Advertisements
Track Severe Weather on mobile